METAR Data
IDs: Format: Raw Decoded Include TAF

Data at: 2148 UTC 01 Dec 2021

LTAC 012120Z 23005KT 200V260 9999 SCT040 02/M04 Q1016 NOSIG RMK RWY21L 22005KT RWY03L 23004KT RWY21R 24004KT